Huvudsida
METAR-TAF:

METAR-TAF

Flygplatser :

Honiara International Airport

Honiara, Guadalcanal, Salomonöarna

latitud: 09-25S, longitud: 160-03E, höjd: 8 m

Aktuellt väderrapport

Denna rapport gjordes för 23 minuter sedan, klockan 06:00 UTC
Vind 5 kt från sydväst
Temperatur 31°C
Fuktighet 71%
Tryck 1009 hPa
Sikt 10 km eller mer
Spridda moln på en höjd av 2000 ft
Få moln på en höjd av 2100 ft, Cumulonimbus.

METAR: AGGH 220600Z 23005KT 9999 SCT020 FEW021CB 31/25 Q1009

Tid: 17:23 (06:23 UTC)

Väderprognos

Denna rapport gjordes för 1 timme och 32 minuter sedan, klockan 04:51 UTC
Prognos gäller från 22 kl. 06 UTC till 23 kl. 06 UTC
Vind 3 kt varierande vindriktning
Sikt 10 km eller mer
Få moln på en höjd av 1800 ft
Sannolikhet 40%
mellan IN och TE UTC
Sikt: 1010 m
Brutna moln på en höjd av 1600 ft
Få moln på en höjd av 1700 ft, Cumulonimbus.

TAF: AGGH 220451Z 2206/2306 VRB03KT 9999 FEW018 PROB40 INTER 2206/2210 5000 TSSH BKN016 FEW017CB T 30 27 25 24 Q 1009 1011 1012 1010

Aktuella väderrapporter och prognoser från 4000 flygplatser (METAR- och TAF-rapporter).

De tillgängliga stationerna syns som gula och röda prickar på kartan.

För musen över prickarna för att se namnen på stationerna.

Klicka sedan för att få väderrapporter och prognoser.

För att ändra kartan: Klicka på de gröna knapparna med ett svart kors på för att zooma in; den gröna knappen med ett streck på för att zooma ut; eller på de gröna pilarna för angränsande kartor.


METAR-TAF: